Accueil
METAR-TAF:

METAR-TAF

Aéroports :

Aéroport de Guernesey

Guernesey,

latitude: 49-26N, longitude: 002-36W, altitude: 102 m

Observation

Le bulletin a été fait il y a 28 minutes, à 18:50 UTC
Vent 4 kt de nord/nord-est, variant entre nord et est/nord-est
Température 18°C
Humidité 77%
Pression 1018 hPa
Visibilité 10 km ou plus
pas de nuages en-dessous de 1500 mètres et pas de cumulonimbus.

METAR: EGJB 151850Z 03004KT 010V070 CAVOK 18/14 Q1018

Heure: 20:18 (19:18 UTC)

Prévision

Le bulletin a été fait il y a 2 heures et 23 minutes, à 16:55 UTC
Prévision valable du 15 à 18 UTC au 16 à 03 UTC
Vent 4 kt de nord
Visibilité 10 km ou plus
pas de nuages en-dessous de 1500 mètres et pas de cumulonimbus.
Temporairement
du 15 à 22 UTC au 16 à 03 UTC
Visibilité: 7000 m
Brouillard mince

TAF: EGJB 151655Z 1518/1603 36004KT CAVOK TEMPO 1522/1603 7000 MIFG

Observations et prévisions météorologiques de plus de 4000 aéroports (messages METAR et TAF).

Les stations disponibles sont représentées par des disques jaunes et rouges sur la carte.

Passer la souris dessus pour voir le nom de la station.

Cliquer dessus pour voir les observations et prévisions météorologiques.

Pour changer de carte: cliquez sur les boutons verts avec une croix noire pour zoomer, sur le bouton vert avec un tiret pour effectuer un zoom arrière, ou sur les flèches vertes pour les cartes adjacentes.


METAR-TAF: